sensor_id;sensor_type;location;lat;lon;timestamp;temperature;humidity
23568;DHT22;11962;50.838;4.430;2024-02-14T00:01:34;11.00;99.90
23568;DHT22;11962;50.838;4.430;2024-02-14T00:04:03;11.00;99.90
23568;DHT22;11962;50.838;4.430;2024-02-14T00:06:28;11.00;99.90
23568;DHT22;11962;50.838;4.430;2024-02-14T00:08:54;11.00;99.90
23568;DHT22;11962;50.838;4.430;2024-02-14T00:11:20;11.10;99.90
23568;DHT22;11962;50.838;4.430;2024-02-14T00:13:46;11.10;99.90
23568;DHT22;11962;50.838;4.430;2024-02-14T00:16:11;11.10;99.90
23568;DHT22;11962;50.838;4.430;2024-02-14T00:18:37;11.10;99.90
23568;DHT22;11962;50.838;4.430;2024-02-14T00:21:03;11.10;99.90
23568;DHT22;11962;50.838;4.430;2024-02-14T00:23:28;11.00;99.90
23568;DHT22;11962;50.838;4.430;2024-02-14T00:25:54;11.10;99.90
23568;DHT22;11962;50.838;4.430;2024-02-14T00:28:20;11.10;99.90
23568;DHT22;11962;50.838;4.430;2024-02-14T00:30:49;11.10;99.90
23568;DHT22;11962;50.838;4.430;2024-02-14T00:33:15;11.10;99.90
23568;DHT22;11962;50.838;4.430;2024-02-14T00:35:41;11.20;99.90
23568;DHT22;11962;50.838;4.430;2024-02-14T00:38:07;11.20;99.90
23568;DHT22;11962;50.838;4.430;2024-02-14T00:40:33;11.10;99.90
23568;DHT22;11962;50.838;4.430;2024-02-14T00:42:59;11.20;99.90
23568;DHT22;11962;50.838;4.430;2024-02-14T00:45:24;11.10;99.90
23568;DHT22;11962;50.838;4.430;2024-02-14T00:47:50;11.20;99.90
23568;DHT22;11962;50.838;4.430;2024-02-14T00:50:16;11.20;99.90
23568;DHT22;11962;50.838;4.430;2024-02-14T00:52:42;11.20;99.90
23568;DHT22;11962;50.838;4.430;2024-02-14T00:55:08;11.20;99.90
23568;DHT22;11962;50.838;4.430;2024-02-14T00:57:34;11.30;99.90
23568;DHT22;11962;50.838;4.430;2024-02-14T01:00:00;11.30;99.90
23568;DHT22;11962;50.838;4.430;2024-02-14T01:02:26;11.30;99.90
23568;DHT22;11962;50.838;4.430;2024-02-14T01:04:52;11.30;99.90
23568;DHT22;11962;50.838;4.430;2024-02-14T01:07:18;11.40;99.90
23568;DHT22;11962;50.838;4.430;2024-02-14T01:09:43;11.40;99.90
23568;DHT22;11962;50.838;4.430;2024-02-14T01:12:09;11.40;99.90
23568;DHT22;11962;50.838;4.430;2024-02-14T01:14:35;11.40;99.90
23568;DHT22;11962;50.838;4.430;2024-02-14T01:17:00;11.40;99.90
23568;DHT22;11962;50.838;4.430;2024-02-14T01:19:26;11.40;99.90
23568;DHT22;11962;50.838;4.430;2024-02-14T01:21:54;11.40;99.90
23568;DHT22;11962;50.838;4.430;2024-02-14T01:24:21;11.50;99.90
23568;DHT22;11962;50.838;4.430;2024-02-14T01:26:47;11.50;99.90
23568;DHT22;11962;50.838;4.430;2024-02-14T01:29:13;11.50;99.90
23568;DHT22;11962;50.838;4.430;2024-02-14T01:31:39;11.40;99.90
23568;DHT22;11962;50.838;4.430;2024-02-14T01:34:04;11.40;99.90
23568;DHT22;11962;50.838;4.430;2024-02-14T01:36:30;11.30;99.90
23568;DHT22;11962;50.838;4.430;2024-02-14T01:38:56;11.30;99.90
23568;DHT22;11962;50.838;4.430;2024-02-14T01:41:22;11.40;99.90
23568;DHT22;11962;50.838;4.430;2024-02-14T01:43:47;11.40;99.90
23568;DHT22;11962;50.838;4.430;2024-02-14T01:46:14;11.40;99.90
23568;DHT22;11962;50.838;4.430;2024-02-14T01:48:41;11.40;99.90
23568;DHT22;11962;50.838;4.430;2024-02-14T01:51:09;11.40;99.90
23568;DHT22;11962;50.838;4.430;2024-02-14T01:53:37;11.40;99.90
23568;DHT22;11962;50.838;4.430;2024-02-14T01:56:04;11.30;99.90
23568;DHT22;11962;50.838;4.430;2024-02-14T01:58:31;11.30;99.90
23568;DHT22;11962;50.838;4.430;2024-02-14T02:00:58;11.40;99.90
23568;DHT22;11962;50.838;4.430;2024-02-14T02:03:27;11.40;99.90
23568;DHT22;11962;50.838;4.430;2024-02-14T02:05:53;11.40;99.90
23568;DHT22;11962;50.838;4.430;2024-02-14T02:08:19;11.50;99.90
23568;DHT22;11962;50.838;4.430;2024-02-14T02:10:45;11.40;99.90
23568;DHT22;11962;50.838;4.430;2024-02-14T02:13:11;11.30;99.90
23568;DHT22;11962;50.838;4.430;2024-02-14T02:15:37;11.30;99.90
23568;DHT22;11962;50.838;4.430;2024-02-14T02:18:03;11.20;99.90
23568;DHT22;11962;50.838;4.430;2024-02-14T02:20:31;11.10;99.90
23568;DHT22;11962;50.838;4.430;2024-02-14T02:22:58;11.10;99.90
23568;DHT22;11962;50.838;4.430;2024-02-14T02:25:24;11.10;99.90
23568;DHT22;11962;50.838;4.430;2024-02-14T02:27:52;11.10;99.90
23568;DHT22;11962;50.838;4.430;2024-02-14T02:30:20;11.10;99.90
23568;DHT22;11962;50.838;4.430;2024-02-14T02:32:46;11.10;99.90
23568;DHT22;11962;50.838;4.430;2024-02-14T02:35:11;11.20;99.90
23568;DHT22;11962;50.838;4.430;2024-02-14T02:37:37;11.20;99.90
23568;DHT22;11962;50.838;4.430;2024-02-14T02:40:03;11.30;99.90
23568;DHT22;11962;50.838;4.430;2024-02-14T02:42:30;11.30;99.90
23568;DHT22;11962;50.838;4.430;2024-02-14T02:44:56;11.30;99.90
23568;DHT22;11962;50.838;4.430;2024-02-14T02:47:21;11.40;99.90
23568;DHT22;11962;50.838;4.430;2024-02-14T02:49:47;11.40;99.90
23568;DHT22;11962;50.838;4.430;2024-02-14T02:52:13;11.50;99.90
23568;DHT22;11962;50.838;4.430;2024-02-14T02:54:39;11.50;99.90
23568;DHT22;11962;50.838;4.430;2024-02-14T02:57:07;11.50;99.90
23568;DHT22;11962;50.838;4.430;2024-02-14T02:59:34;11.50;99.90
23568;DHT22;11962;50.838;4.430;2024-02-14T03:02:01;11.50;99.90
23568;DHT22;11962;50.838;4.430;2024-02-14T03:04:27;11.50;99.90
23568;DHT22;11962;50.838;4.430;2024-02-14T03:06:54;11.50;99.90
23568;DHT22;11962;50.838;4.430;2024-02-14T03:09:19;11.60;99.90
23568;DHT22;11962;50.838;4.430;2024-02-14T03:11:48;11.60;99.90
23568;DHT22;11962;50.838;4.430;2024-02-14T03:14:14;11.70;99.90
23568;DHT22;11962;50.838;4.430;2024-02-14T03:16:40;11.70;99.90
23568;DHT22;11962;50.838;4.430;2024-02-14T03:19:06;11.70;99.90
23568;DHT22;11962;50.838;4.430;2024-02-14T03:21:32;11.70;99.90
23568;DHT22;11962;50.838;4.430;2024-02-14T03:24:04;11.70;99.90
23568;DHT22;11962;50.838;4.430;2024-02-14T03:26:31;11.70;99.90
23568;DHT22;11962;50.838;4.430;2024-02-14T03:29:00;11.70;99.90
23568;DHT22;11962;50.838;4.430;2024-02-14T03:31:26;11.60;99.90
23568;DHT22;11962;50.838;4.430;2024-02-14T03:33:51;11.50;99.90
23568;DHT22;11962;50.838;4.430;2024-02-14T03:36:19;11.40;99.90
23568;DHT22;11962;50.838;4.430;2024-02-14T03:38:44;11.40;99.90
23568;DHT22;11962;50.838;4.430;2024-02-14T03:41:12;11.40;99.90
23568;DHT22;11962;50.838;4.430;2024-02-14T03:43:38;11.40;99.90
23568;DHT22;11962;50.838;4.430;2024-02-14T03:46:04;11.40;99.90
23568;DHT22;11962;50.838;4.430;2024-02-14T03:48:31;11.40;99.90
23568;DHT22;11962;50.838;4.430;2024-02-14T03:50:57;11.40;99.90
23568;DHT22;11962;50.838;4.430;2024-02-14T03:53:23;11.40;99.90
23568;DHT22;11962;50.838;4.430;2024-02-14T03:55:49;11.40;99.90
23568;DHT22;11962;50.838;4.430;2024-02-14T03:58:15;11.40;99.90
23568;DHT22;11962;50.838;4.430;2024-02-14T04:00:42;11.40;99.90
23568;DHT22;11962;50.838;4.430;2024-02-14T04:03:12;11.40;99.90
23568;DHT22;11962;50.838;4.430;2024-02-14T04:05:38;11.40;99.90
23568;DHT22;11962;50.838;4.430;2024-02-14T04:08:04;11.40;99.90
23568;DHT22;11962;50.838;4.430;2024-02-14T04:10:30;11.40;99.90
23568;DHT22;11962;50.838;4.430;2024-02-14T04:12:55;11.30;99.90
23568;DHT22;11962;50.838;4.430;2024-02-14T04:15:21;11.40;99.90
23568;DHT22;11962;50.838;4.430;2024-02-14T04:17:47;11.40;99.90
23568;DHT22;11962;50.838;4.430;2024-02-14T04:20:12;11.30;99.90
23568;DHT22;11962;50.838;4.430;2024-02-14T04:22:38;11.40;99.90
23568;DHT22;11962;50.838;4.430;2024-02-14T04:25:04;11.40;99.90
23568;DHT22;11962;50.838;4.430;2024-02-14T04:27:32;11.40;99.90
23568;DHT22;11962;50.838;4.430;2024-02-14T04:30:01;11.40;99.90
23568;DHT22;11962;50.838;4.430;2024-02-14T04:32:26;11.40;99.90
23568;DHT22;11962;50.838;4.430;2024-02-14T04:34:52;11.40;99.90
23568;DHT22;11962;50.838;4.430;2024-02-14T04:37:18;11.40;99.90
23568;DHT22;11962;50.838;4.430;2024-02-14T04:39:45;11.40;99.90
23568;DHT22;11962;50.838;4.430;2024-02-14T04:42:11;11.40;99.90
23568;DHT22;11962;50.838;4.430;2024-02-14T04:44:37;11.50;99.90
23568;DHT22;11962;50.838;4.430;2024-02-14T04:47:03;11.50;99.90
23568;DHT22;11962;50.838;4.430;2024-02-14T04:49:29;11.50;99.90
23568;DHT22;11962;50.838;4.430;2024-02-14T04:51:55;11.50;99.90
23568;DHT22;11962;50.838;4.430;2024-02-14T04:54:20;11.50;99.90
23568;DHT22;11962;50.838;4.430;2024-02-14T04:56:46;11.60;99.90
23568;DHT22;11962;50.838;4.430;2024-02-14T04:59:12;11.60;99.90
23568;DHT22;11962;50.838;4.430;2024-02-14T05:01:38;11.60;99.90
23568;DHT22;11962;50.838;4.430;2024-02-14T05:04:08;11.60;99.90
23568;DHT22;11962;50.838;4.430;2024-02-14T05:06:34;11.70;99.90
23568;DHT22;11962;50.838;4.430;2024-02-14T05:09:00;11.70;99.90
23568;DHT22;11962;50.838;4.430;2024-02-14T05:11:25;11.70;99.90
23568;DHT22;11962;50.838;4.430;2024-02-14T05:13:51;11.70;99.90
23568;DHT22;11962;50.838;4.430;2024-02-14T05:16:20;11.70;99.90
23568;DHT22;11962;50.838;4.430;2024-02-14T05:18:45;11.70;99.90
23568;DHT22;11962;50.838;4.430;2024-02-14T05:21:12;11.70;99.90
23568;DHT22;11962;50.838;4.430;2024-02-14T05:23:37;11.70;99.90
23568;DHT22;11962;50.838;4.430;2024-02-14T05:26:03;11.70;99.90
23568;DHT22;11962;50.838;4.430;2024-02-14T05:28:30;11.70;99.90
23568;DHT22;11962;50.838;4.430;2024-02-14T05:30:59;11.80;99.90
23568;DHT22;11962;50.838;4.430;2024-02-14T05:33:26;11.80;99.90
23568;DHT22;11962;50.838;4.430;2024-02-14T05:35:52;11.90;99.90
23568;DHT22;11962;50.838;4.430;2024-02-14T05:38:18;11.90;99.90
23568;DHT22;11962;50.838;4.430;2024-02-14T05:40:47;11.90;99.90
23568;DHT22;11962;50.838;4.430;2024-02-14T05:43:14;11.90;99.90
23568;DHT22;11962;50.838;4.430;2024-02-14T05:45:39;12.00;99.90
23568;DHT22;11962;50.838;4.430;2024-02-14T05:48:05;11.90;99.90
23568;DHT22;11962;50.838;4.430;2024-02-14T05:50:31;12.00;99.90
23568;DHT22;11962;50.838;4.430;2024-02-14T05:52:58;12.00;99.90
23568;DHT22;11962;50.838;4.430;2024-02-14T05:55:24;12.10;99.90
23568;DHT22;11962;50.838;4.430;2024-02-14T05:57:50;12.10;99.90
23568;DHT22;11962;50.838;4.430;2024-02-14T06:00:19;12.10;99.90
23568;DHT22;11962;50.838;4.430;2024-02-14T06:02:47;12.10;99.90
23568;DHT22;11962;50.838;4.430;2024-02-14T06:05:14;12.10;99.90
23568;DHT22;11962;50.838;4.430;2024-02-14T06:07:40;12.10;99.90
23568;DHT22;11962;50.838;4.430;2024-02-14T06:10:07;12.10;99.90
23568;DHT22;11962;50.838;4.430;2024-02-14T06:12:34;12.10;99.90
23568;DHT22;11962;50.838;4.430;2024-02-14T06:15:01;12.20;99.90
23568;DHT22;11962;50.838;4.430;2024-02-14T06:17:27;12.10;99.90
23568;DHT22;11962;50.838;4.430;2024-02-14T06:19:53;12.20;99.90
23568;DHT22;11962;50.838;4.430;2024-02-14T06:22:19;12.20;99.90
23568;DHT22;11962;50.838;4.430;2024-02-14T06:24:45;12.20;99.90
23568;DHT22;11962;50.838;4.430;2024-02-14T06:27:14;12.20;99.90
23568;DHT22;11962;50.838;4.430;2024-02-14T06:29:42;12.30;99.90
23568;DHT22;11962;50.838;4.430;2024-02-14T06:32:08;12.30;99.90
23568;DHT22;11962;50.838;4.430;2024-02-14T06:34:34;12.30;99.90
23568;DHT22;11962;50.838;4.430;2024-02-14T06:36:59;12.30;99.90
23568;DHT22;11962;50.838;4.430;2024-02-14T06:39:25;12.30;99.90
23568;DHT22;11962;50.838;4.430;2024-02-14T06:41:51;12.30;99.90
23568;DHT22;11962;50.838;4.430;2024-02-14T06:44:17;12.20;99.90
23568;DHT22;11962;50.838;4.430;2024-02-14T06:46:44;12.20;99.90
23568;DHT22;11962;50.838;4.430;2024-02-14T06:49:09;12.30;99.90
23568;DHT22;11962;50.838;4.430;2024-02-14T06:51:35;12.30;99.90
23568;DHT22;11962;50.838;4.430;2024-02-14T06:54:01;12.20;99.90
23568;DHT22;11962;50.838;4.430;2024-02-14T06:56:26;12.30;99.90
23568;DHT22;11962;50.838;4.430;2024-02-14T06:58:52;12.30;99.90
23568;DHT22;11962;50.838;4.430;2024-02-14T07:01:27;12.40;99.90
23568;DHT22;11962;50.838;4.430;2024-02-14T07:03:53;12.40;99.90
23568;DHT22;11962;50.838;4.430;2024-02-14T07:06:19;12.30;99.90
23568;DHT22;11962;50.838;4.430;2024-02-14T07:08:45;12.30;99.90
23568;DHT22;11962;50.838;4.430;2024-02-14T07:11:11;12.30;99.90
23568;DHT22;11962;50.838;4.430;2024-02-14T07:13:37;12.40;99.90
23568;DHT22;11962;50.838;4.430;2024-02-14T07:16:02;12.40;99.90
23568;DHT22;11962;50.838;4.430;2024-02-14T07:18:28;12.40;99.90
23568;DHT22;11962;50.838;4.430;2024-02-14T07:20:54;12.40;99.90
23568;DHT22;11962;50.838;4.430;2024-02-14T07:23:20;12.50;99.90
23568;DHT22;11962;50.838;4.430;2024-02-14T07:25:46;12.50;99.90
23568;DHT22;11962;50.838;4.430;2024-02-14T07:28:12;12.50;99.90
23568;DHT22;11962;50.838;4.430;2024-02-14T07:30:37;12.50;99.90
23568;DHT22;11962;50.838;4.430;2024-02-14T07:33:03;12.50;99.90
23568;DHT22;11962;50.838;4.430;2024-02-14T07:35:29;12.50;99.90
23568;DHT22;11962;50.838;4.430;2024-02-14T07:37:55;12.50;99.90
23568;DHT22;11962;50.838;4.430;2024-02-14T07:40:22;12.50;99.90
23568;DHT22;11962;50.838;4.430;2024-02-14T07:42:48;12.50;99.90
23568;DHT22;11962;50.838;4.430;2024-02-14T07:45:14;12.50;99.90
23568;DHT22;11962;50.838;4.430;2024-02-14T07:47:40;12.60;99.90
23568;DHT22;11962;50.838;4.430;2024-02-14T07:50:06;12.60;99.90
23568;DHT22;11962;50.838;4.430;2024-02-14T07:52:32;12.60;99.90
23568;DHT22;11962;50.838;4.430;2024-02-14T07:54:58;12.70;99.90
23568;DHT22;11962;50.838;4.430;2024-02-14T07:57:25;12.70;99.90
23568;DHT22;11962;50.838;4.430;2024-02-14T07:59:51;12.80;99.90
23568;DHT22;11962;50.838;4.430;2024-02-14T08:02:17;12.90;99.90
23568;DHT22;11962;50.838;4.430;2024-02-14T08:04:43;13.00;99.90
23568;DHT22;11962;50.838;4.430;2024-02-14T08:07:09;13.10;99.90
23568;DHT22;11962;50.838;4.430;2024-02-14T08:09:36;13.10;99.90
23568;DHT22;11962;50.838;4.430;2024-02-14T08:12:01;13.00;99.90
23568;DHT22;11962;50.838;4.430;2024-02-14T08:14:28;13.00;99.90
23568;DHT22;11962;50.838;4.430;2024-02-14T08:16:53;13.00;99.90
23568;DHT22;11962;50.838;4.430;2024-02-14T08:19:19;12.90;99.90
23568;DHT22;11962;50.838;4.430;2024-02-14T08:21:45;12.80;99.90
23568;DHT22;11962;50.838;4.430;2024-02-14T08:24:11;12.80;99.90
23568;DHT22;11962;50.838;4.430;2024-02-14T08:26:36;12.70;99.90
23568;DHT22;11962;50.838;4.430;2024-02-14T08:29:02;12.70;99.90
23568;DHT22;11962;50.838;4.430;2024-02-14T08:31:29;12.60;99.90
23568;DHT22;11962;50.838;4.430;2024-02-14T08:33:55;12.70;99.90
23568;DHT22;11962;50.838;4.430;2024-02-14T08:36:20;12.70;99.90
23568;DHT22;11962;50.838;4.430;2024-02-14T08:38:46;12.70;99.90
23568;DHT22;11962;50.838;4.430;2024-02-14T08:41:12;12.70;99.90
23568;DHT22;11962;50.838;4.430;2024-02-14T08:43:38;12.80;99.90
23568;DHT22;11962;50.838;4.430;2024-02-14T08:46:10;12.90;99.90
23568;DHT22;11962;50.838;4.430;2024-02-14T08:48:36;12.90;99.90
23568;DHT22;11962;50.838;4.430;2024-02-14T08:51:07;12.90;99.90
23568;DHT22;11962;50.838;4.430;2024-02-14T08:53:35;12.90;99.90
23568;DHT22;11962;50.838;4.430;2024-02-14T08:56:01;12.90;99.90
23568;DHT22;11962;50.838;4.430;2024-02-14T08:58:27;12.90;99.90
23568;DHT22;11962;50.838;4.430;2024-02-14T09:00:52;12.90;99.90
23568;DHT22;11962;50.838;4.430;2024-02-14T09:03:19;12.90;99.90
23568;DHT22;11962;50.838;4.430;2024-02-14T09:05:45;13.00;99.90
23568;DHT22;11962;50.838;4.430;2024-02-14T09:08:12;13.10;99.90
23568;DHT22;11962;50.838;4.430;2024-02-14T09:10:38;13.10;99.90
23568;DHT22;11962;50.838;4.430;2024-02-14T09:13:04;13.10;99.90
23568;DHT22;11962;50.838;4.430;2024-02-14T09:15:32;13.10;99.90
23568;DHT22;11962;50.838;4.430;2024-02-14T09:17:58;13.20;99.90
23568;DHT22;11962;50.838;4.430;2024-02-14T09:20:25;13.20;99.90
23568;DHT22;11962;50.838;4.430;2024-02-14T09:22:51;13.30;99.90
23568;DHT22;11962;50.838;4.430;2024-02-14T09:25:18;13.40;99.90
23568;DHT22;11962;50.838;4.430;2024-02-14T09:27:44;13.50;99.90
23568;DHT22;11962;50.838;4.430;2024-02-14T09:30:12;13.50;99.90
23568;DHT22;11962;50.838;4.430;2024-02-14T09:32:38;13.50;99.90
23568;DHT22;11962;50.838;4.430;2024-02-14T09:35:05;13.50;99.90
23568;DHT22;11962;50.838;4.430;2024-02-14T09:37:32;13.40;99.90
23568;DHT22;11962;50.838;4.430;2024-02-14T09:39:58;13.40;99.90
23568;DHT22;11962;50.838;4.430;2024-02-14T09:42:55;13.40;99.90
23568;DHT22;11962;50.838;4.430;2024-02-14T09:45:25;13.40;99.90
23568;DHT22;11962;50.838;4.430;2024-02-14T09:47:52;13.40;99.90
23568;DHT22;11962;50.838;4.430;2024-02-14T09:50:19;13.30;99.90
23568;DHT22;11962;50.838;4.430;2024-02-14T09:52:47;13.20;99.90
23568;DHT22;11962;50.838;4.430;2024-02-14T09:55:17;13.20;99.90
23568;DHT22;11962;50.838;4.430;2024-02-14T09:57:44;13.30;99.90
23568;DHT22;11962;50.838;4.430;2024-02-14T10:00:10;13.30;99.90
23568;DHT22;11962;50.838;4.430;2024-02-14T10:02:36;13.30;99.90
23568;DHT22;11962;50.838;4.430;2024-02-14T10:05:03;13.40;99.90
23568;DHT22;11962;50.838;4.430;2024-02-14T10:07:29;13.50;99.90
23568;DHT22;11962;50.838;4.430;2024-02-14T10:10:05;13.60;99.90
23568;DHT22;11962;50.838;4.430;2024-02-14T10:12:31;13.70;99.90
23568;DHT22;11962;50.838;4.430;2024-02-14T10:14:57;13.70;99.90
23568;DHT22;11962;50.838;4.430;2024-02-14T10:17:22;13.70;99.90
23568;DHT22;11962;50.838;4.430;2024-02-14T10:19:58;13.80;99.90
23568;DHT22;11962;50.838;4.430;2024-02-14T10:22:25;13.80;99.90
23568;DHT22;11962;50.838;4.430;2024-02-14T10:24:51;13.80;99.90
23568;DHT22;11962;50.838;4.430;2024-02-14T10:27:17;13.80;99.90
23568;DHT22;11962;50.838;4.430;2024-02-14T10:29:43;13.90;99.90
23568;DHT22;11962;50.838;4.430;2024-02-14T10:32:10;13.90;99.90
23568;DHT22;11962;50.838;4.430;2024-02-14T10:34:37;14.00;99.90
23568;DHT22;11962;50.838;4.430;2024-02-14T10:37:06;13.90;99.90
23568;DHT22;11962;50.838;4.430;2024-02-14T10:39:32;13.90;99.90
23568;DHT22;11962;50.838;4.430;2024-02-14T10:42:01;13.90;99.90
23568;DHT22;11962;50.838;4.430;2024-02-14T10:44:29;13.90;99.90
23568;DHT22;11962;50.838;4.430;2024-02-14T10:46:55;14.00;99.90
23568;DHT22;11962;50.838;4.430;2024-02-14T10:49:26;14.00;99.90
23568;DHT22;11962;50.838;4.430;2024-02-14T10:51:54;14.00;99.90
23568;DHT22;11962;50.838;4.430;2024-02-14T10:54:21;14.10;99.90
23568;DHT22;11962;50.838;4.430;2024-02-14T10:56:49;14.10;99.90
23568;DHT22;11962;50.838;4.430;2024-02-14T10:59:19;14.10;99.90
23568;DHT22;11962;50.838;4.430;2024-02-14T11:01:46;14.20;99.90
23568;DHT22;11962;50.838;4.430;2024-02-14T11:04:12;14.20;99.90
23568;DHT22;11962;50.838;4.430;2024-02-14T11:06:51;14.20;99.90
23568;DHT22;11962;50.838;4.430;2024-02-14T11:09:19;14.10;99.90
23568;DHT22;11962;50.838;4.430;2024-02-14T11:11:45;14.10;99.90
23568;DHT22;11962;50.838;4.430;2024-02-14T11:14:15;14.00;99.90
23568;DHT22;11962;50.838;4.430;2024-02-14T11:16:41;14.20;99.90
23568;DHT22;11962;50.838;4.430;2024-02-14T11:19:11;14.20;99.90
23568;DHT22;11962;50.838;4.430;2024-02-14T11:21:43;14.30;99.90
23568;DHT22;11962;50.838;4.430;2024-02-14T11:24:15;14.20;99.90
23568;DHT22;11962;50.838;4.430;2024-02-14T11:26:47;14.20;99.90
23568;DHT22;11962;50.838;4.430;2024-02-14T11:29:16;14.10;99.90
23568;DHT22;11962;50.838;4.430;2024-02-14T11:31:43;14.10;99.90
23568;DHT22;11962;50.838;4.430;2024-02-14T11:34:11;14.10;99.90
23568;DHT22;11962;50.838;4.430;2024-02-14T11:36:36;14.20;99.90
23568;DHT22;11962;50.838;4.430;2024-02-14T11:39:03;14.20;99.90
23568;DHT22;11962;50.838;4.430;2024-02-14T11:41:30;14.10;99.90
23568;DHT22;11962;50.838;4.430;2024-02-14T11:44:01;14.10;99.90
23568;DHT22;11962;50.838;4.430;2024-02-14T11:46:32;14.20;99.90
23568;DHT22;11962;50.838;4.430;2024-02-14T11:48:59;14.20;99.90
23568;DHT22;11962;50.838;4.430;2024-02-14T11:51:34;14.20;99.90
23568;DHT22;11962;50.838;4.430;2024-02-14T11:54:05;14.20;99.90
23568;DHT22;11962;50.838;4.430;2024-02-14T11:56:39;14.20;99.90
23568;DHT22;11962;50.838;4.430;2024-02-14T11:59:08;14.20;99.90
23568;DHT22;11962;50.838;4.430;2024-02-14T12:01:36;14.30;99.90
23568;DHT22;11962;50.838;4.430;2024-02-14T12:04:04;14.30;99.90
23568;DHT22;11962;50.838;4.430;2024-02-14T12:06:31;14.40;99.90
23568;DHT22;11962;50.838;4.430;2024-02-14T12:08:58;14.50;99.90
23568;DHT22;11962;50.838;4.430;2024-02-14T12:11:29;14.60;99.90
23568;DHT22;11962;50.838;4.430;2024-02-14T12:13:55;14.80;99.90
23568;DHT22;11962;50.838;4.430;2024-02-14T12:16:21;14.90;99.90
23568;DHT22;11962;50.838;4.430;2024-02-14T12:18:47;15.00;99.90
23568;DHT22;11962;50.838;4.430;2024-02-14T12:21:13;15.00;99.90
23568;DHT22;11962;50.838;4.430;2024-02-14T12:23:39;15.00;99.90
23568;DHT22;11962;50.838;4.430;2024-02-14T12:26:05;15.10;99.90
23568;DHT22;11962;50.838;4.430;2024-02-14T12:28:31;15.10;99.90
23568;DHT22;11962;50.838;4.430;2024-02-14T12:30:57;15.20;99.90
23568;DHT22;11962;50.838;4.430;2024-02-14T12:33:24;15.20;99.90
23568;DHT22;11962;50.838;4.430;2024-02-14T12:35:51;15.30;99.90
23568;DHT22;11962;50.838;4.430;2024-02-14T12:38:19;15.30;99.90
23568;DHT22;11962;50.838;4.430;2024-02-14T12:40:45;15.30;99.90
23568;DHT22;11962;50.838;4.430;2024-02-14T12:43:12;15.30;99.90
23568;DHT22;11962;50.838;4.430;2024-02-14T12:45:39;15.30;99.90
23568;DHT22;11962;50.838;4.430;2024-02-14T12:48:06;15.30;99.90
23568;DHT22;11962;50.838;4.430;2024-02-14T12:50:34;15.20;99.90
23568;DHT22;11962;50.838;4.430;2024-02-14T12:53:01;15.20;99.90
23568;DHT22;11962;50.838;4.430;2024-02-14T12:55:27;15.20;99.90
23568;DHT22;11962;50.838;4.430;2024-02-14T12:57:57;15.30;99.90
23568;DHT22;11962;50.838;4.430;2024-02-14T13:00:24;15.20;99.90
23568;DHT22;11962;50.838;4.430;2024-02-14T13:02:50;15.20;99.90
23568;DHT22;11962;50.838;4.430;2024-02-14T13:05:16;15.10;99.90
23568;DHT22;11962;50.838;4.430;2024-02-14T13:07:42;15.10;99.90
23568;DHT22;11962;50.838;4.430;2024-02-14T13:10:08;15.00;99.90
23568;DHT22;11962;50.838;4.430;2024-02-14T13:12:39;15.00;99.90
23568;DHT22;11962;50.838;4.430;2024-02-14T13:15:05;15.00;99.90
23568;DHT22;11962;50.838;4.430;2024-02-14T13:17:31;15.00;99.90
23568;DHT22;11962;50.838;4.430;2024-02-14T13:19:57;15.00;99.90
23568;DHT22;11962;50.838;4.430;2024-02-14T13:22:25;15.00;99.90
23568;DHT22;11962;50.838;4.430;2024-02-14T13:24:51;14.90;99.90
23568;DHT22;11962;50.838;4.430;2024-02-14T13:27:17;14.90;99.90
23568;DHT22;11962;50.838;4.430;2024-02-14T13:29:43;14.90;99.90
23568;DHT22;11962;50.838;4.430;2024-02-14T13:32:09;15.00;99.90
23568;DHT22;11962;50.838;4.430;2024-02-14T13:34:34;15.00;99.90
23568;DHT22;11962;50.838;4.430;2024-02-14T13:37:00;14.90;99.90
23568;DHT22;11962;50.838;4.430;2024-02-14T13:39:27;15.00;99.90
23568;DHT22;11962;50.838;4.430;2024-02-14T13:41:53;15.00;99.90
23568;DHT22;11962;50.838;4.430;2024-02-14T13:44:20;14.90;99.90
23568;DHT22;11962;50.838;4.430;2024-02-14T13:46:46;15.00;99.90
23568;DHT22;11962;50.838;4.430;2024-02-14T13:49:12;15.00;99.90
23568;DHT22;11962;50.838;4.430;2024-02-14T13:51:41;15.00;99.90
23568;DHT22;11962;50.838;4.430;2024-02-14T13:54:07;14.90;99.90
23568;DHT22;11962;50.838;4.430;2024-02-14T13:56:34;14.90;99.90
23568;DHT22;11962;50.838;4.430;2024-02-14T13:59:00;14.90;99.90
23568;DHT22;11962;50.838;4.430;2024-02-14T14:01:26;14.90;99.90
23568;DHT22;11962;50.838;4.430;2024-02-14T14:03:52;14.90;99.90
23568;DHT22;11962;50.838;4.430;2024-02-14T14:06:20;15.00;99.90
23568;DHT22;11962;50.838;4.430;2024-02-14T14:08:46;15.00;99.90
23568;DHT22;11962;50.838;4.430;2024-02-14T14:11:12;15.00;99.90
23568;DHT22;11962;50.838;4.430;2024-02-14T14:13:37;15.10;99.90
23568;DHT22;11962;50.838;4.430;2024-02-14T14:16:03;15.20;99.90
23568;DHT22;11962;50.838;4.430;2024-02-14T14:18:32;15.20;99.90
23568;DHT22;11962;50.838;4.430;2024-02-14T14:20:58;15.10;99.90
23568;DHT22;11962;50.838;4.430;2024-02-14T14:23:24;15.20;99.90
23568;DHT22;11962;50.838;4.430;2024-02-14T14:25:49;15.20;99.90
23568;DHT22;11962;50.838;4.430;2024-02-14T14:28:15;15.20;99.90
23568;DHT22;11962;50.838;4.430;2024-02-14T14:30:42;15.20;99.90
23568;DHT22;11962;50.838;4.430;2024-02-14T14:33:09;15.10;99.90
23568;DHT22;11962;50.838;4.430;2024-02-14T14:35:36;15.20;99.90
23568;DHT22;11962;50.838;4.430;2024-02-14T14:38:02;15.20;99.90
23568;DHT22;11962;50.838;4.430;2024-02-14T14:40:29;15.30;99.90
23568;DHT22;11962;50.838;4.430;2024-02-14T14:42:55;15.30;99.90
23568;DHT22;11962;50.838;4.430;2024-02-14T14:45:20;15.30;99.90
23568;DHT22;11962;50.838;4.430;2024-02-14T14:47:46;15.30;99.90
23568;DHT22;11962;50.838;4.430;2024-02-14T14:50:12;15.40;99.90
23568;DHT22;11962;50.838;4.430;2024-02-14T14:52:38;15.50;99.90
23568;DHT22;11962;50.838;4.430;2024-02-14T14:55:05;15.50;99.90
23568;DHT22;11962;50.838;4.430;2024-02-14T14:57:30;15.50;99.90
23568;DHT22;11962;50.838;4.430;2024-02-14T14:59:56;15.40;99.90
23568;DHT22;11962;50.838;4.430;2024-02-14T15:02:22;15.40;99.90
23568;DHT22;11962;50.838;4.430;2024-02-14T15:04:48;15.40;99.90
23568;DHT22;11962;50.838;4.430;2024-02-14T15:07:14;15.40;99.90
23568;DHT22;11962;50.838;4.430;2024-02-14T15:09:42;15.40;99.90
23568;DHT22;11962;50.838;4.430;2024-02-14T15:12:08;15.50;99.90
23568;DHT22;11962;50.838;4.430;2024-02-14T15:14:35;15.40;99.90
23568;DHT22;11962;50.838;4.430;2024-02-14T15:17:01;15.40;99.90
23568;DHT22;11962;50.838;4.430;2024-02-14T15:19:27;15.40;99.90
23568;DHT22;11962;50.838;4.430;2024-02-14T15:21:52;15.40;99.90
23568;DHT22;11962;50.838;4.430;2024-02-14T15:24:18;15.30;99.90
23568;DHT22;11962;50.838;4.430;2024-02-14T15:26:45;15.30;99.90